sensor_id;sensor_type;location;lat;lon;timestamp;P1;durP1;ratioP1;P2;durP2;ratioP2
16403;SDS011;8311;50.158;8.642;2022-12-07T00:01:40;0.60;;;0.60;;
16403;SDS011;8311;50.158;8.642;2022-12-07T00:04:34;0.70;;;0.68;;
16403;SDS011;8311;50.158;8.642;2022-12-07T00:07:27;0.70;;;0.63;;
16403;SDS011;8311;50.158;8.642;2022-12-07T00:10:20;0.88;;;0.68;;
16403;SDS011;8311;50.158;8.642;2022-12-07T00:13:14;0.50;;;0.50;;
16403;SDS011;8311;50.158;8.642;2022-12-07T00:16:07;0.70;;;0.70;;
16403;SDS011;8311;50.158;8.642;2022-12-07T00:19:03;0.80;;;0.60;;
16403;SDS011;8311;50.158;8.642;2022-12-07T00:21:56;0.70;;;0.52;;
16403;SDS011;8311;50.158;8.642;2022-12-07T00:24:49;0.75;;;0.50;;
16403;SDS011;8311;50.158;8.642;2022-12-07T00:27:42;0.68;;;0.65;;
16403;SDS011;8311;50.158;8.642;2022-12-07T00:30:35;0.73;;;0.60;;
16403;SDS011;8311;50.158;8.642;2022-12-07T00:33:28;0.63;;;0.63;;
16403;SDS011;8311;50.158;8.642;2022-12-07T00:36:23;0.73;;;0.70;;
16403;SDS011;8311;50.158;8.642;2022-12-07T00:39:17;0.80;;;0.63;;
16403;SDS011;8311;50.158;8.642;2022-12-07T00:42:11;0.50;;;0.50;;
16403;SDS011;8311;50.158;8.642;2022-12-07T00:45:05;0.70;;;0.70;;
16403;SDS011;8311;50.158;8.642;2022-12-07T00:47:59;0.65;;;0.65;;
16403;SDS011;8311;50.158;8.642;2022-12-07T00:50:52;1.10;;;0.60;;
16403;SDS011;8311;50.158;8.642;2022-12-07T00:53:47;1.20;;;0.73;;
16403;SDS011;8311;50.158;8.642;2022-12-07T00:56:41;0.60;;;0.60;;
16403;SDS011;8311;50.158;8.642;2022-12-07T00:59:34;1.45;;;0.77;;
16403;SDS011;8311;50.158;8.642;2022-12-07T01:02:27;0.93;;;0.80;;
16403;SDS011;8311;50.158;8.642;2022-12-07T01:05:21;0.70;;;0.70;;
16403;SDS011;8311;50.158;8.642;2022-12-07T01:08:14;0.68;;;0.52;;
16403;SDS011;8311;50.158;8.642;2022-12-07T01:11:09;0.88;;;0.70;;
16403;SDS011;8311;50.158;8.642;2022-12-07T01:14:05;0.77;;;0.60;;
16403;SDS011;8311;50.158;8.642;2022-12-07T01:16:58;0.88;;;0.65;;
16403;SDS011;8311;50.158;8.642;2022-12-07T01:19:51;1.15;;;0.70;;
16403;SDS011;8311;50.158;8.642;2022-12-07T01:22:45;0.70;;;0.70;;
16403;SDS011;8311;50.158;8.642;2022-12-07T01:25:38;0.60;;;0.60;;
16403;SDS011;8311;50.158;8.642;2022-12-07T01:28:33;0.82;;;0.70;;
16403;SDS011;8311;50.158;8.642;2022-12-07T01:31:27;1.30;;;0.90;;
16403;SDS011;8311;50.158;8.642;2022-12-07T01:34:21;0.68;;;0.55;;
16403;SDS011;8311;50.158;8.642;2022-12-07T01:37:14;0.68;;;0.60;;
16403;SDS011;8311;50.158;8.642;2022-12-07T01:40:09;0.95;;;0.70;;
16403;SDS011;8311;50.158;8.642;2022-12-07T01:43:04;1.00;;;0.80;;
16403;SDS011;8311;50.158;8.642;2022-12-07T01:46:02;1.00;;;0.90;;
16403;SDS011;8311;50.158;8.642;2022-12-07T01:48:55;1.25;;;0.70;;
16403;SDS011;8311;50.158;8.642;2022-12-07T01:51:49;1.10;;;0.70;;
16403;SDS011;8311;50.158;8.642;2022-12-07T01:54:44;0.82;;;0.75;;
16403;SDS011;8311;50.158;8.642;2022-12-07T01:57:40;0.77;;;0.68;;
16403;SDS011;8311;50.158;8.642;2022-12-07T02:00:35;0.52;;;0.52;;
16403;SDS011;8311;50.158;8.642;2022-12-07T02:03:31;0.63;;;0.60;;
16403;SDS011;8311;50.158;8.642;2022-12-07T02:06:28;1.00;;;0.70;;
16403;SDS011;8311;50.158;8.642;2022-12-07T02:09:23;0.63;;;0.63;;
16403;SDS011;8311;50.158;8.642;2022-12-07T02:12:16;0.63;;;0.63;;
16403;SDS011;8311;50.158;8.642;2022-12-07T02:15:09;0.77;;;0.70;;
16403;SDS011;8311;50.158;8.642;2022-12-07T02:18:04;0.85;;;0.60;;
16403;SDS011;8311;50.158;8.642;2022-12-07T02:21:04;0.60;;;0.60;;
16403;SDS011;8311;50.158;8.642;2022-12-07T02:24:08;0.63;;;0.50;;
16403;SDS011;8311;50.158;8.642;2022-12-07T02:27:21;0.52;;;0.52;;
16403;SDS011;8311;50.158;8.642;2022-12-07T02:30:34;0.60;;;0.60;;
16403;SDS011;8311;50.158;8.642;2022-12-07T02:33:33;0.60;;;0.60;;
16403;SDS011;8311;50.158;8.642;2022-12-07T02:36:30;0.63;;;0.57;;
16403;SDS011;8311;50.158;8.642;2022-12-07T02:39:31;0.68;;;0.60;;
16403;SDS011;8311;50.158;8.642;2022-12-07T02:42:31;0.70;;;0.70;;
16403;SDS011;8311;50.158;8.642;2022-12-07T02:45:28;0.73;;;0.52;;
16403;SDS011;8311;50.158;8.642;2022-12-07T02:48:25;1.15;;;0.70;;
16403;SDS011;8311;50.158;8.642;2022-12-07T02:51:21;1.17;;;0.68;;
16403;SDS011;8311;50.158;8.642;2022-12-07T02:54:15;0.65;;;0.60;;
16403;SDS011;8311;50.158;8.642;2022-12-07T02:57:16;0.70;;;0.57;;
16403;SDS011;8311;50.158;8.642;2022-12-07T03:00:21;1.10;;;0.82;;
16403;SDS011;8311;50.158;8.642;2022-12-07T03:03:15;0.50;;;0.50;;
16403;SDS011;8311;50.158;8.642;2022-12-07T03:06:11;0.50;;;0.50;;
16403;SDS011;8311;50.158;8.642;2022-12-07T03:09:10;1.33;;;0.80;;
16403;SDS011;8311;50.158;8.642;2022-12-07T03:12:08;0.82;;;0.80;;
16403;SDS011;8311;50.158;8.642;2022-12-07T03:15:07;1.05;;;0.73;;
16403;SDS011;8311;50.158;8.642;2022-12-07T03:18:03;0.93;;;0.70;;
16403;SDS011;8311;50.158;8.642;2022-12-07T03:20:58;0.70;;;0.60;;
16403;SDS011;8311;50.158;8.642;2022-12-07T03:23:58;0.70;;;0.60;;
16403;SDS011;8311;50.158;8.642;2022-12-07T03:26:56;0.85;;;0.80;;
16403;SDS011;8311;50.158;8.642;2022-12-07T03:29:58;0.63;;;0.63;;
16403;SDS011;8311;50.158;8.642;2022-12-07T03:32:56;0.68;;;0.68;;
16403;SDS011;8311;50.158;8.642;2022-12-07T03:35:54;0.50;;;0.50;;
16403;SDS011;8311;50.158;8.642;2022-12-07T03:38:54;1.63;;;0.90;;
16403;SDS011;8311;50.158;8.642;2022-12-07T03:41:54;0.75;;;0.68;;
16403;SDS011;8311;50.158;8.642;2022-12-07T03:44:48;1.02;;;0.77;;
16403;SDS011;8311;50.158;8.642;2022-12-07T03:47:43;0.70;;;0.60;;
16403;SDS011;8311;50.158;8.642;2022-12-07T03:50:42;0.70;;;0.63;;
16403;SDS011;8311;50.158;8.642;2022-12-07T03:53:42;0.50;;;0.50;;
16403;SDS011;8311;50.158;8.642;2022-12-07T03:56:42;1.20;;;0.70;;
16403;SDS011;8311;50.158;8.642;2022-12-07T03:59:37;0.70;;;0.60;;
16403;SDS011;8311;50.158;8.642;2022-12-07T04:02:32;0.68;;;0.60;;
16403;SDS011;8311;50.158;8.642;2022-12-07T04:05:25;1.17;;;0.50;;
16403;SDS011;8311;50.158;8.642;2022-12-07T04:08:19;0.82;;;0.60;;
16403;SDS011;8311;50.158;8.642;2022-12-07T04:11:12;0.68;;;0.60;;
16403;SDS011;8311;50.158;8.642;2022-12-07T04:14:07;0.95;;;0.73;;
16403;SDS011;8311;50.158;8.642;2022-12-07T04:17:12;0.70;;;0.50;;
16403;SDS011;8311;50.158;8.642;2022-12-07T04:20:06;1.00;;;0.65;;
16403;SDS011;8311;50.158;8.642;2022-12-07T04:23:00;0.50;;;0.50;;
16403;SDS011;8311;50.158;8.642;2022-12-07T04:25:54;0.52;;;0.52;;
16403;SDS011;8311;50.158;8.642;2022-12-07T04:28:47;0.77;;;0.77;;
16403;SDS011;8311;50.158;8.642;2022-12-07T04:31:41;1.08;;;0.60;;
16403;SDS011;8311;50.158;8.642;2022-12-07T04:34:34;0.90;;;0.80;;
16403;SDS011;8311;50.158;8.642;2022-12-07T04:37:28;0.75;;;0.70;;
16403;SDS011;8311;50.158;8.642;2022-12-07T04:40:20;0.75;;;0.60;;
16403;SDS011;8311;50.158;8.642;2022-12-07T04:43:14;0.70;;;0.63;;
16403;SDS011;8311;50.158;8.642;2022-12-07T04:46:07;0.75;;;0.47;;
16403;SDS011;8311;50.158;8.642;2022-12-07T04:49:01;0.63;;;0.50;;
16403;SDS011;8311;50.158;8.642;2022-12-07T04:51:55;0.68;;;0.68;;
16403;SDS011;8311;50.158;8.642;2022-12-07T04:54:48;0.60;;;0.60;;
16403;SDS011;8311;50.158;8.642;2022-12-07T04:57:41;0.68;;;0.57;;
16403;SDS011;8311;50.158;8.642;2022-12-07T05:00:34;1.10;;;0.60;;
16403;SDS011;8311;50.158;8.642;2022-12-07T05:03:28;0.60;;;0.60;;
16403;SDS011;8311;50.158;8.642;2022-12-07T05:06:22;1.10;;;0.80;;
16403;SDS011;8311;50.158;8.642;2022-12-07T05:09:16;1.10;;;0.75;;
16403;SDS011;8311;50.158;8.642;2022-12-07T05:12:09;0.63;;;0.55;;
16403;SDS011;8311;50.158;8.642;2022-12-07T05:15:02;0.40;;;0.40;;
16403;SDS011;8311;50.158;8.642;2022-12-07T05:17:55;0.70;;;0.60;;
16403;SDS011;8311;50.158;8.642;2022-12-07T05:20:49;0.52;;;0.52;;
16403;SDS011;8311;50.158;8.642;2022-12-07T05:23:44;0.68;;;0.60;;
16403;SDS011;8311;50.158;8.642;2022-12-07T05:26:37;1.02;;;0.73;;
16403;SDS011;8311;50.158;8.642;2022-12-07T05:29:29;1.10;;;0.77;;
16403;SDS011;8311;50.158;8.642;2022-12-07T05:32:22;0.60;;;0.60;;
16403;SDS011;8311;50.158;8.642;2022-12-07T05:35:16;0.70;;;0.60;;
16403;SDS011;8311;50.158;8.642;2022-12-07T05:38:08;0.95;;;0.82;;
16403;SDS011;8311;50.158;8.642;2022-12-07T05:41:03;0.50;;;0.50;;
16403;SDS011;8311;50.158;8.642;2022-12-07T05:43:58;0.70;;;0.68;;
16403;SDS011;8311;50.158;8.642;2022-12-07T05:46:51;0.60;;;0.60;;
16403;SDS011;8311;50.158;8.642;2022-12-07T05:49:44;0.73;;;0.68;;
16403;SDS011;8311;50.158;8.642;2022-12-07T05:52:39;0.50;;;0.50;;
16403;SDS011;8311;50.158;8.642;2022-12-07T05:55:32;0.85;;;0.60;;
16403;SDS011;8311;50.158;8.642;2022-12-07T05:58:26;1.15;;;0.77;;
16403;SDS011;8311;50.158;8.642;2022-12-07T06:01:37;0.60;;;0.55;;
16403;SDS011;8311;50.158;8.642;2022-12-07T06:04:32;0.75;;;0.60;;
16403;SDS011;8311;50.158;8.642;2022-12-07T06:07:27;1.15;;;0.90;;
16403;SDS011;8311;50.158;8.642;2022-12-07T06:10:20;0.60;;;0.60;;
16403;SDS011;8311;50.158;8.642;2022-12-07T06:13:12;0.70;;;0.70;;
16403;SDS011;8311;50.158;8.642;2022-12-07T06:16:06;0.70;;;0.65;;
16403;SDS011;8311;50.158;8.642;2022-12-07T06:19:00;0.60;;;0.60;;
16403;SDS011;8311;50.158;8.642;2022-12-07T06:21:52;0.50;;;0.50;;
16403;SDS011;8311;50.158;8.642;2022-12-07T06:24:46;1.63;;;0.52;;
16403;SDS011;8311;50.158;8.642;2022-12-07T06:27:39;0.52;;;0.50;;
16403;SDS011;8311;50.158;8.642;2022-12-07T06:30:32;0.73;;;0.60;;
16403;SDS011;8311;50.158;8.642;2022-12-07T06:33:26;0.68;;;0.47;;
16403;SDS011;8311;50.158;8.642;2022-12-07T06:36:20;0.93;;;0.80;;
16403;SDS011;8311;50.158;8.642;2022-12-07T06:39:18;0.50;;;0.50;;
16403;SDS011;8311;50.158;8.642;2022-12-07T06:42:12;0.55;;;0.55;;
16403;SDS011;8311;50.158;8.642;2022-12-07T06:45:05;0.60;;;0.60;;
16403;SDS011;8311;50.158;8.642;2022-12-07T06:47:59;0.60;;;0.50;;
16403;SDS011;8311;50.158;8.642;2022-12-07T06:50:54;0.50;;;0.50;;
16403;SDS011;8311;50.158;8.642;2022-12-07T06:53:46;0.50;;;0.50;;
16403;SDS011;8311;50.158;8.642;2022-12-07T06:56:40;0.60;;;0.50;;
16403;SDS011;8311;50.158;8.642;2022-12-07T06:59:33;0.50;;;0.50;;
16403;SDS011;8311;50.158;8.642;2022-12-07T07:02:27;0.95;;;0.55;;
16403;SDS011;8311;50.158;8.642;2022-12-07T07:05:20;0.65;;;0.65;;
16403;SDS011;8311;50.158;8.642;2022-12-07T07:08:15;0.50;;;0.50;;
16403;SDS011;8311;50.158;8.642;2022-12-07T07:11:13;0.82;;;0.70;;
16403;SDS011;8311;50.158;8.642;2022-12-07T07:14:07;0.93;;;0.70;;
16403;SDS011;8311;50.158;8.642;2022-12-07T07:17:00;0.50;;;0.50;;
16403;SDS011;8311;50.158;8.642;2022-12-07T07:19:53;0.73;;;0.57;;
16403;SDS011;8311;50.158;8.642;2022-12-07T07:22:45;0.85;;;0.63;;
16403;SDS011;8311;50.158;8.642;2022-12-07T07:25:40;0.57;;;0.57;;
16403;SDS011;8311;50.158;8.642;2022-12-07T07:28:34;1.27;;;0.80;;
16403;SDS011;8311;50.158;8.642;2022-12-07T07:31:27;0.65;;;0.60;;
16403;SDS011;8311;50.158;8.642;2022-12-07T07:34:20;0.50;;;0.50;;
16403;SDS011;8311;50.158;8.642;2022-12-07T07:37:13;0.60;;;0.60;;
16403;SDS011;8311;50.158;8.642;2022-12-07T07:40:12;0.60;;;0.60;;
16403;SDS011;8311;50.158;8.642;2022-12-07T07:43:06;0.63;;;0.52;;
16403;SDS011;8311;50.158;8.642;2022-12-07T07:46:00;0.63;;;0.63;;
16403;SDS011;8311;50.158;8.642;2022-12-07T07:48:53;0.85;;;0.80;;
16403;SDS011;8311;50.158;8.642;2022-12-07T07:51:46;0.50;;;0.50;;
16403;SDS011;8311;50.158;8.642;2022-12-07T07:54:39;1.15;;;0.57;;
16403;SDS011;8311;50.158;8.642;2022-12-07T07:57:32;0.60;;;0.60;;
16403;SDS011;8311;50.158;8.642;2022-12-07T08:00:26;0.70;;;0.70;;
16403;SDS011;8311;50.158;8.642;2022-12-07T08:03:19;0.60;;;0.60;;
16403;SDS011;8311;50.158;8.642;2022-12-07T08:06:13;0.90;;;0.68;;
16403;SDS011;8311;50.158;8.642;2022-12-07T08:09:06;0.95;;;0.68;;
16403;SDS011;8311;50.158;8.642;2022-12-07T08:11:59;0.47;;;0.47;;
16403;SDS011;8311;50.158;8.642;2022-12-07T08:14:52;0.60;;;0.60;;
16403;SDS011;8311;50.158;8.642;2022-12-07T08:17:47;0.75;;;0.70;;
16403;SDS011;8311;50.158;8.642;2022-12-07T08:20:40;0.80;;;0.65;;
16403;SDS011;8311;50.158;8.642;2022-12-07T08:23:33;0.95;;;0.57;;
16403;SDS011;8311;50.158;8.642;2022-12-07T08:26:30;0.68;;;0.68;;
16403;SDS011;8311;50.158;8.642;2022-12-07T08:29:23;0.60;;;0.60;;
16403;SDS011;8311;50.158;8.642;2022-12-07T08:32:16;0.55;;;0.55;;
16403;SDS011;8311;50.158;8.642;2022-12-07T08:35:10;0.52;;;0.52;;
16403;SDS011;8311;50.158;8.642;2022-12-07T08:38:04;0.50;;;0.50;;
16403;SDS011;8311;50.158;8.642;2022-12-07T08:40:57;0.50;;;0.50;;
16403;SDS011;8311;50.158;8.642;2022-12-07T08:43:51;0.60;;;0.60;;
16403;SDS011;8311;50.158;8.642;2022-12-07T08:46:44;0.60;;;0.60;;
16403;SDS011;8311;50.158;8.642;2022-12-07T08:49:40;0.70;;;0.60;;
16403;SDS011;8311;50.158;8.642;2022-12-07T08:52:38;0.75;;;0.70;;
16403;SDS011;8311;50.158;8.642;2022-12-07T08:55:33;0.50;;;0.50;;
16403;SDS011;8311;50.158;8.642;2022-12-07T08:58:27;0.43;;;0.43;;
16403;SDS011;8311;50.158;8.642;2022-12-07T09:01:20;0.60;;;0.60;;
16403;SDS011;8311;50.158;8.642;2022-12-07T09:04:14;0.63;;;0.55;;
16403;SDS011;8311;50.158;8.642;2022-12-07T09:07:08;1.25;;;0.55;;
16403;SDS011;8311;50.158;8.642;2022-12-07T09:10:04;0.50;;;0.50;;
16403;SDS011;8311;50.158;8.642;2022-12-07T09:12:58;0.50;;;0.50;;
16403;SDS011;8311;50.158;8.642;2022-12-07T09:15:52;0.52;;;0.50;;
16403;SDS011;8311;50.158;8.642;2022-12-07T09:18:45;0.65;;;0.65;;
16403;SDS011;8311;50.158;8.642;2022-12-07T09:21:38;0.80;;;0.60;;
16403;SDS011;8311;50.158;8.642;2022-12-07T09:24:31;1.60;;;0.70;;
16403;SDS011;8311;50.158;8.642;2022-12-07T09:27:25;0.60;;;0.60;;
16403;SDS011;8311;50.158;8.642;2022-12-07T09:30:19;0.80;;;0.60;;
16403;SDS011;8311;50.158;8.642;2022-12-07T09:33:12;0.95;;;0.60;;
16403;SDS011;8311;50.158;8.642;2022-12-07T09:36:05;1.17;;;0.68;;
16403;SDS011;8311;50.158;8.642;2022-12-07T09:39:00;0.55;;;0.55;;
16403;SDS011;8311;50.158;8.642;2022-12-07T09:41:54;0.60;;;0.57;;
16403;SDS011;8311;50.158;8.642;2022-12-07T09:44:50;0.88;;;0.80;;
16403;SDS011;8311;50.158;8.642;2022-12-07T09:47:44;0.82;;;0.80;;
16403;SDS011;8311;50.158;8.642;2022-12-07T09:50:39;0.60;;;0.60;;
16403;SDS011;8311;50.158;8.642;2022-12-07T09:53:32;1.05;;;0.73;;
16403;SDS011;8311;50.158;8.642;2022-12-07T09:56:28;0.70;;;0.70;;
16403;SDS011;8311;50.158;8.642;2022-12-07T09:59:23;0.63;;;0.63;;
16403;SDS011;8311;50.158;8.642;2022-12-07T10:02:21;1.20;;;0.63;;
16403;SDS011;8311;50.158;8.642;2022-12-07T10:05:20;0.88;;;0.70;;
16403;SDS011;8311;50.158;8.642;2022-12-07T10:08:17;2.85;;;1.60;;
16403;SDS011;8311;50.158;8.642;2022-12-07T10:11:11;5.40;;;3.13;;
16403;SDS011;8311;50.158;8.642;2022-12-07T10:14:10;5.78;;;2.90;;
16403;SDS011;8311;50.158;8.642;2022-12-07T10:20:26;6.25;;;2.42;;
16403;SDS011;8311;50.158;8.642;2022-12-07T10:23:20;6.57;;;2.35;;
16403;SDS011;8311;50.158;8.642;2022-12-07T10:26:19;5.00;;;2.33;;
16403;SDS011;8311;50.158;8.642;2022-12-07T10:29:21;2.85;;;1.83;;
16403;SDS011;8311;50.158;8.642;2022-12-07T10:32:28;4.40;;;1.98;;
16403;SDS011;8311;50.158;8.642;2022-12-07T10:35:26;4.00;;;1.80;;
16403;SDS011;8311;50.158;8.642;2022-12-07T10:38:20;3.33;;;1.70;;
16403;SDS011;8311;50.158;8.642;2022-12-07T10:41:13;3.85;;;1.75;;
16403;SDS011;8311;50.158;8.642;2022-12-07T10:44:07;4.13;;;1.67;;
16403;SDS011;8311;50.158;8.642;2022-12-07T10:47:23;2.92;;;1.83;;
16403;SDS011;8311;50.158;8.642;2022-12-07T10:53:51;2.20;;;1.65;;
16403;SDS011;8311;50.158;8.642;2022-12-07T10:56:55;1.90;;;1.23;;
16403;SDS011;8311;50.158;8.642;2022-12-07T10:59:59;2.95;;;1.42;;
16403;SDS011;8311;50.158;8.642;2022-12-07T11:06:22;2.95;;;1.60;;
16403;SDS011;8311;50.158;8.642;2022-12-07T11:09:29;1.52;;;1.10;;
16403;SDS011;8311;50.158;8.642;2022-12-07T11:13:03;1.95;;;1.20;;
16403;SDS011;8311;50.158;8.642;2022-12-07T11:16:21;2.40;;;1.40;;
16403;SDS011;8311;50.158;8.642;2022-12-07T11:19:24;1.52;;;0.93;;
16403;SDS011;8311;50.158;8.642;2022-12-07T11:22:36;1.83;;;1.10;;
16403;SDS011;8311;50.158;8.642;2022-12-07T11:25:39;2.85;;;1.40;;
16403;SDS011;8311;50.158;8.642;2022-12-07T11:28:46;1.73;;;1.17;;
16403;SDS011;8311;50.158;8.642;2022-12-07T11:31:57;1.65;;;1.00;;
16403;SDS011;8311;50.158;8.642;2022-12-07T11:35:00;2.75;;;1.35;;
16403;SDS011;8311;50.158;8.642;2022-12-07T11:38:03;2.00;;;1.10;;
16403;SDS011;8311;50.158;8.642;2022-12-07T11:41:04;2.13;;;1.10;;
16403;SDS011;8311;50.158;8.642;2022-12-07T11:44:07;1.52;;;1.27;;
16403;SDS011;8311;50.158;8.642;2022-12-07T11:47:19;1.30;;;1.05;;
16403;SDS011;8311;50.158;8.642;2022-12-07T11:50:23;1.90;;;1.02;;
16403;SDS011;8311;50.158;8.642;2022-12-07T11:53:21;2.33;;;1.30;;
16403;SDS011;8311;50.158;8.642;2022-12-07T11:56:19;2.03;;;1.13;;
16403;SDS011;8311;50.158;8.642;2022-12-07T11:59:16;1.98;;;1.30;;
16403;SDS011;8311;50.158;8.642;2022-12-07T12:02:15;1.35;;;1.00;;
16403;SDS011;8311;50.158;8.642;2022-12-07T12:05:17;1.45;;;1.10;;
16403;SDS011;8311;50.158;8.642;2022-12-07T12:08:14;3.28;;;1.13;;
16403;SDS011;8311;50.158;8.642;2022-12-07T12:11:35;1.10;;;0.90;;
16403;SDS011;8311;50.158;8.642;2022-12-07T12:14:42;1.48;;;1.00;;
16403;SDS011;8311;50.158;8.642;2022-12-07T12:17:45;1.00;;;0.95;;
16403;SDS011;8311;50.158;8.642;2022-12-07T12:20:53;1.25;;;0.90;;
16403;SDS011;8311;50.158;8.642;2022-12-07T12:23:49;1.70;;;1.20;;
16403;SDS011;8311;50.158;8.642;2022-12-07T12:26:50;1.02;;;0.90;;
16403;SDS011;8311;50.158;8.642;2022-12-07T12:29:50;1.02;;;0.93;;
16403;SDS011;8311;50.158;8.642;2022-12-07T12:32:46;1.73;;;1.08;;
16403;SDS011;8311;50.158;8.642;2022-12-07T12:35:40;2.50;;;0.90;;
16403;SDS011;8311;50.158;8.642;2022-12-07T12:38:33;1.75;;;1.05;;
16403;SDS011;8311;50.158;8.642;2022-12-07T12:41:53;3.33;;;1.17;;
16403;SDS011;8311;50.158;8.642;2022-12-07T12:45:03;1.63;;;1.13;;
16403;SDS011;8311;50.158;8.642;2022-12-07T12:48:27;1.30;;;0.85;;
16403;SDS011;8311;50.158;8.642;2022-12-07T12:51:36;0.98;;;0.85;;
16403;SDS011;8311;50.158;8.642;2022-12-07T12:54:32;2.08;;;1.17;;
16403;SDS011;8311;50.158;8.642;2022-12-07T12:57:29;1.75;;;0.90;;
16403;SDS011;8311;50.158;8.642;2022-12-07T13:00:26;2.30;;;1.10;;
16403;SDS011;8311;50.158;8.642;2022-12-07T13:03:21;2.22;;;1.10;;
16403;SDS011;8311;50.158;8.642;2022-12-07T13:06:19;1.38;;;0.90;;
16403;SDS011;8311;50.158;8.642;2022-12-07T13:09:25;1.17;;;1.00;;
16403;SDS011;8311;50.158;8.642;2022-12-07T13:12:20;1.23;;;1.02;;
16403;SDS011;8311;50.158;8.642;2022-12-07T13:18:34;1.15;;;0.80;;
16403;SDS011;8311;50.158;8.642;2022-12-07T13:21:42;1.88;;;1.00;;
16403;SDS011;8311;50.158;8.642;2022-12-07T13:24:35;1.20;;;1.00;;
16403;SDS011;8311;50.158;8.642;2022-12-07T13:27:28;1.38;;;0.93;;
16403;SDS011;8311;50.158;8.642;2022-12-07T13:30:22;1.38;;;1.02;;
16403;SDS011;8311;50.158;8.642;2022-12-07T13:33:17;1.10;;;0.90;;
16403;SDS011;8311;50.158;8.642;2022-12-07T13:36:14;1.55;;;0.88;;
16403;SDS011;8311;50.158;8.642;2022-12-07T13:39:18;1.38;;;0.90;;
16403;SDS011;8311;50.158;8.642;2022-12-07T13:42:16;1.85;;;1.00;;
16403;SDS011;8311;50.158;8.642;2022-12-07T13:45:20;1.25;;;0.80;;
16403;SDS011;8311;50.158;8.642;2022-12-07T13:48:44;1.30;;;0.90;;
16403;SDS011;8311;50.158;8.642;2022-12-07T13:51:38;0.82;;;0.80;;
16403;SDS011;8311;50.158;8.642;2022-12-07T13:54:31;1.65;;;0.85;;
16403;SDS011;8311;50.158;8.642;2022-12-07T13:57:26;1.33;;;1.02;;
16403;SDS011;8311;50.158;8.642;2022-12-07T14:00:23;0.95;;;0.80;;
16403;SDS011;8311;50.158;8.642;2022-12-07T14:03:27;1.35;;;0.90;;
16403;SDS011;8311;50.158;8.642;2022-12-07T14:06:24;1.15;;;1.00;;
16403;SDS011;8311;50.158;8.642;2022-12-07T14:09:20;1.33;;;0.90;;
16403;SDS011;8311;50.158;8.642;2022-12-07T14:12:14;1.30;;;0.80;;
16403;SDS011;8311;50.158;8.642;2022-12-07T14:15:15;0.85;;;0.70;;
16403;SDS011;8311;50.158;8.642;2022-12-07T14:18:24;1.05;;;0.95;;
16403;SDS011;8311;50.158;8.642;2022-12-07T14:21:21;0.88;;;0.88;;
16403;SDS011;8311;50.158;8.642;2022-12-07T14:24:17;1.33;;;0.80;;
16403;SDS011;8311;50.158;8.642;2022-12-07T14:27:17;1.77;;;0.98;;
16403;SDS011;8311;50.158;8.642;2022-12-07T14:30:15;1.25;;;0.80;;
16403;SDS011;8311;50.158;8.642;2022-12-07T14:33:09;1.40;;;1.13;;
16403;SDS011;8311;50.158;8.642;2022-12-07T14:36:02;1.02;;;0.85;;
16403;SDS011;8311;50.158;8.642;2022-12-07T14:38:56;1.20;;;0.93;;
16403;SDS011;8311;50.158;8.642;2022-12-07T14:41:51;0.77;;;0.77;;
16403;SDS011;8311;50.158;8.642;2022-12-07T14:44:44;0.90;;;0.88;;
16403;SDS011;8311;50.158;8.642;2022-12-07T14:47:38;1.17;;;1.00;;
16403;SDS011;8311;50.158;8.642;2022-12-07T14:50:52;0.85;;;0.80;;
16403;SDS011;8311;50.158;8.642;2022-12-07T14:54:06;2.17;;;1.10;;
16403;SDS011;8311;50.158;8.642;2022-12-07T14:57:08;1.00;;;0.65;;
16403;SDS011;8311;50.158;8.642;2022-12-07T15:00:02;1.67;;;0.98;;
16403;SDS011;8311;50.158;8.642;2022-12-07T15:02:56;0.75;;;0.73;;
16403;SDS011;8311;50.158;8.642;2022-12-07T15:05:50;1.27;;;0.77;;
16403;SDS011;8311;50.158;8.642;2022-12-07T15:08:43;1.20;;;0.70;;
16403;SDS011;8311;50.158;8.642;2022-12-07T15:11:38;0.85;;;0.75;;
16403;SDS011;8311;50.158;8.642;2022-12-07T15:14:35;1.20;;;0.80;;
16403;SDS011;8311;50.158;8.642;2022-12-07T15:17:28;0.73;;;0.68;;
16403;SDS011;8311;50.158;8.642;2022-12-07T15:20:23;0.60;;;0.60;;
16403;SDS011;8311;50.158;8.642;2022-12-07T15:23:16;0.70;;;0.70;;
16403;SDS011;8311;50.158;8.642;2022-12-07T15:26:09;1.55;;;1.00;;
16403;SDS011;8311;50.158;8.642;2022-12-07T15:29:05;0.50;;;0.50;;
16403;SDS011;8311;50.158;8.642;2022-12-07T15:31:58;0.68;;;0.68;;
16403;SDS011;8311;50.158;8.642;2022-12-07T15:34:51;0.90;;;0.80;;
16403;SDS011;8311;50.158;8.642;2022-12-07T15:37:44;1.73;;;0.80;;
16403;SDS011;8311;50.158;8.642;2022-12-07T15:40:39;0.65;;;0.60;;
16403;SDS011;8311;50.158;8.642;2022-12-07T15:43:32;0.90;;;0.90;;
16403;SDS011;8311;50.158;8.642;2022-12-07T15:46:44;1.70;;;0.80;;
16403;SDS011;8311;50.158;8.642;2022-12-07T15:49:38;1.05;;;0.93;;
16403;SDS011;8311;50.158;8.642;2022-12-07T15:52:32;0.70;;;0.70;;
16403;SDS011;8311;50.158;8.642;2022-12-07T15:55:26;0.80;;;0.80;;
16403;SDS011;8311;50.158;8.642;2022-12-07T15:58:20;1.17;;;0.70;;
16403;SDS011;8311;50.158;8.642;2022-12-07T16:01:14;1.00;;;0.82;;
16403;SDS011;8311;50.158;8.642;2022-12-07T16:04:09;0.90;;;0.75;;
16403;SDS011;8311;50.158;8.642;2022-12-07T16:07:02;1.23;;;0.77;;
16403;SDS011;8311;50.158;8.642;2022-12-07T16:09:55;0.88;;;0.88;;
16403;SDS011;8311;50.158;8.642;2022-12-07T16:12:49;0.75;;;0.75;;
16403;SDS011;8311;50.158;8.642;2022-12-07T16:15:42;0.70;;;0.60;;
16403;SDS011;8311;50.158;8.642;2022-12-07T16:18:35;1.48;;;0.93;;
16403;SDS011;8311;50.158;8.642;2022-12-07T16:21:30;0.88;;;0.80;;
16403;SDS011;8311;50.158;8.642;2022-12-07T16:24:23;1.23;;;0.80;;
16403;SDS011;8311;50.158;8.642;2022-12-07T16:27:16;0.70;;;0.65;;
16403;SDS011;8311;50.158;8.642;2022-12-07T16:30:11;0.70;;;0.70;;
16403;SDS011;8311;50.158;8.642;2022-12-07T16:33:07;0.63;;;0.60;;
16403;SDS011;8311;50.158;8.642;2022-12-07T16:36:01;0.65;;;0.60;;
16403;SDS011;8311;50.158;8.642;2022-12-07T16:38:57;0.70;;;0.70;;
16403;SDS011;8311;50.158;8.642;2022-12-07T16:41:51;0.77;;;0.60;;
16403;SDS011;8311;50.158;8.642;2022-12-07T16:44:45;1.58;;;0.77;;
16403;SDS011;8311;50.158;8.642;2022-12-07T16:47:39;0.85;;;0.70;;
16403;SDS011;8311;50.158;8.642;2022-12-07T16:50:32;0.68;;;0.68;;
16403;SDS011;8311;50.158;8.642;2022-12-07T16:53:25;0.80;;;0.70;;
16403;SDS011;8311;50.158;8.642;2022-12-07T16:56:20;0.55;;;0.55;;
16403;SDS011;8311;50.158;8.642;2022-12-07T16:59:13;0.80;;;0.77;;
16403;SDS011;8311;50.158;8.642;2022-12-07T17:02:07;0.70;;;0.60;;
16403;SDS011;8311;50.158;8.642;2022-12-07T17:05:02;0.50;;;0.50;;
16403;SDS011;8311;50.158;8.642;2022-12-07T17:07:56;0.95;;;0.70;;
16403;SDS011;8311;50.158;8.642;2022-12-07T17:10:50;0.75;;;0.75;;
16403;SDS011;8311;50.158;8.642;2022-12-07T17:13:45;1.10;;;0.80;;
16403;SDS011;8311;50.158;8.642;2022-12-07T17:16:55;0.70;;;0.68;;
16403;SDS011;8311;50.158;8.642;2022-12-07T17:19:48;0.75;;;0.55;;
16403;SDS011;8311;50.158;8.642;2022-12-07T17:22:41;1.50;;;0.77;;
16403;SDS011;8311;50.158;8.642;2022-12-07T17:25:34;0.70;;;0.50;;
16403;SDS011;8311;50.158;8.642;2022-12-07T17:28:27;1.42;;;0.80;;
16403;SDS011;8311;50.158;8.642;2022-12-07T17:31:22;0.70;;;0.70;;
16403;SDS011;8311;50.158;8.642;2022-12-07T17:34:16;0.68;;;0.68;;
16403;SDS011;8311;50.158;8.642;2022-12-07T17:37:09;0.95;;;0.73;;
16403;SDS011;8311;50.158;8.642;2022-12-07T17:40:03;0.80;;;0.75;;
16403;SDS011;8311;50.158;8.642;2022-12-07T17:42:57;0.50;;;0.50;;
16403;SDS011;8311;50.158;8.642;2022-12-07T17:45:50;0.88;;;0.65;;
16403;SDS011;8311;50.158;8.642;2022-12-07T17:48:46;0.50;;;0.50;;
16403;SDS011;8311;50.158;8.642;2022-12-07T17:51:39;0.40;;;0.40;;
16403;SDS011;8311;50.158;8.642;2022-12-07T17:54:50;0.85;;;0.68;;
16403;SDS011;8311;50.158;8.642;2022-12-07T17:57:43;0.80;;;0.70;;
16403;SDS011;8311;50.158;8.642;2022-12-07T18:00:37;0.65;;;0.65;;
16403;SDS011;8311;50.158;8.642;2022-12-07T18:03:31;0.57;;;0.55;;
16403;SDS011;8311;50.158;8.642;2022-12-07T18:06:25;0.70;;;0.70;;
16403;SDS011;8311;50.158;8.642;2022-12-07T18:09:19;0.63;;;0.60;;
16403;SDS011;8311;50.158;8.642;2022-12-07T18:12:13;0.73;;;0.73;;